Race progress: MT Misery

  • Race started:
    Sunday, August 9, 2015 08:00 (GMT+9:30)
  • Race location:
    Greenacres, Australia
Race finished
Place Bib Racer name Age Category Finish time
1 299 McCabe, Matt 32 M-30-34 2:08:02.4 --100%28.20%27.03%5:20.1
2 321 Funk, Kieren 21 M-19-24 2:10:07.5 +2:05.1+1.63%98.40%27.03%25.84%5:25.3
3 296 Hockings, Ben 37 M-35-39 2:11:24.0 +3:21.6+2.62%97.44%26.31%25.11%5:28.5
4 291 Kromkamp, Adam 38 M-35-39 2:15:13.4 +7:11.0+5.61%94.69%24.17%22.94%5:38.1
5 193 Varney, Michael 44 M-40-44 2:22:21.1 +14:18.7+11.18%89.95%20.17%18.87%5:55.9
6 99 Knowler, James 40 M-40-44 2:25:55.7 +17:53.3+13.97%87.74%18.16%16.83%6:04.8
7 223 Pattison, Clint 43 M-40-44 2:28:13.1 +20:10.7+15.76%86.39%16.88%15.53%6:10.5
8 284 Searle, Dan 33 M-30-34 2:28:42.1 +20:39.7+16.14%86.11%16.61%15.25%6:11.8
9 318 Tooth, Blake 32 M-30-34 2:28:47.3 +20:44.9+16.20%86.06%16.56%15.20%6:12.0
10 157 Ton, Shaun 27 M-25-29 2:29:27.3 +21:24.9+16.73%85.67%16.19%14.82%6:13.6
11 281 Morfey, Shaun 34 M-30-34 2:30:03.3 +22:00.9+17.19%85.33%15.85%14.48%6:15.1
12 288 Cardwell, Josh 24 M-19-24 2:30:56.8 +22:54.4+17.89%84.82%15.35%13.97%6:17.4
13 300 Mills, Chris 32 M-30-34 2:31:22.8 +23:20.4+18.23%84.58%15.11%13.73%6:18.4
14 152 Sykes, Cliff 48 M-45-49 2:32:39.1 +24:36.7+19.22%83.88%14.39%13.00%6:21.6
15 176 How, Travis 40 M-40-44 2:34:36.0 +26:33.6+20.74%82.82%13.30%11.89%6:26.5
16 266 Carton, Tim 25 M-25-29 2:36:01.7 +27:59.3+21.86%82.06%12.50%11.08%6:30.1
17 251 Flower, Cliff 49 M-45-49 2:36:37.8 +28:35.4+22.33%81.75%12.16%10.74%6:31.6
18 302 Stokes, Pete 39 M-35-39 2:38:11.0 +30:08.6+23.54%80.94%11.29%9.85%6:35.5
19 323 Kelly, Greg 50 M-50-54 2:40:12.3 +32:09.9+25.12%79.92%10.16%8.70%6:40.5
20 166 Greeneklee, Stirling 57 M-55-59 2:40:20.3 +32:17.9+25.23%79.86%10.08%8.62%6:40.8
21 175 McLean, Gary 52 M-50-54 2:41:08.0 +33:05.6+25.85%79.46%9.64%8.17%6:42.8
22 303 Bang, Ryan 37 M-35-39 2:42:30.7 +34:28.3+26.92%78.79%8.87%7.38%6:46.3
23 320 Hunt, Glen 37 M-35-39 2:42:52.5 +34:50.1+27.21%78.61%8.66%7.18%6:47.2
24 254 Kniter, Craig 43 M-40-44 2:43:38.6 +35:36.2+27.81%78.24%8.23%6.74%6:49.1
25 184 Kelly, Steven 43 M-40-44 2:43:53.2 +35:50.8+28.00%78.13%8.09%6.60%6:49.7
26 221 LeMire, David 44 M-40-44 2:44:04.0 +36:01.6+28.14%78.04%7.99%6.50%6:50.2
27 265 Carrey, Chris 36 M-35-39 2:44:36.0 +36:33.6+28.55%77.79%7.69%6.19%6:51.5
28 276 Golding, Kirk 43 M-40-44 2:45:00.9 +36:58.5+28.88%77.59%7.46%5.96%6:52.5
29 271 Howat, Robert 40 M-40-44 2:45:45.7 +37:43.3+29.46%77.24%7.04%5.53%6:54.4
30 322 Funk, Brayden 16 M-Junior 2:45:58.8 +37:56.4+29.63%77.14%6.92%5.41%6:55.0
31 289 Bang, Jordan 31 M-30-34 2:51:22.9 +43:20.5+33.85%74.71%3.89%2.33%7:08.5
32 315 Kenward, Toby 27 M-25-29 2:53:33.2 +45:30.8+35.55%73.78%2.67%1.09%7:13.9
33 256 Gohl, Matthew 43 M-40-44 2:55:28.0 +47:25.6+37.04%72.97%1.60%0.00%7:18.7
34 39 Miller, Jonathan 50 M-50-54 2:55:30.0 +47:27.6+37.07%72.96%1.58%-0.02%7:18.8
35 156 Mitchell, Jamie 41 M-40-44 3:00:34.5 +52:32.1+41.03%70.91%-1.26%-2.91%7:31.4
36 143 Temple, Niall 42 M-40-44 3:04:03.4 +56:01.0+43.75%69.57%-3.22%-4.90%7:40.1
37 93 Dueholm, Bjorn 31 M-30-34 3:04:26.3 +56:23.9+44.05%69.42%-3.43%-5.11%7:41.1
38 316 Martin, Andrew 28 M-25-29 3:04:44.2 +56:41.8+44.28%69.31%-3.60%-5.28%7:41.8
39 301 Fuller, James 33 M-30-34 3:05:05.3 +57:02.9+44.56%69.18%-3.80%-5.48%7:42.7
40 311 Lutze, Gavin 53 M-50-54 3:05:58.2 +57:55.8+45.24%68.85%-4.29%-5.99%7:44.9
41 312 Wadewitz, Adam 38 M-35-39 3:06:17.2 +58:14.8+45.49%68.73%-4.47%-6.17%7:45.7
42 264 Rigby, Darrin 40 M-40-44 3:06:44.0 +58:41.6+45.84%68.57%-4.72%-6.42%7:46.8
43 107 Roberts, Adam 48 M-45-49 3:07:47.8 +59:45.4+46.67%68.18%-5.31%-7.03%7:49.5
44 135 Tottey, Graham 46 M-45-49 3:08:04.5 +1:00:02.1+46.89%68.08%-5.47%-7.19%7:50.2
45 119 Vasey, Brenton 41 M-40-44 3:10:03.7 +1:02:01.3+48.44%67.37%-6.58%-8.32%7:55.2
46 225 Richards, Jed 44 M-40-44 3:15:04.0 +1:07:01.6+52.35%65.64%-9.39%-11.17%8:07.7
47 228 Dall, David 39 M-35-39 3:15:04.6 +1:07:02.2+52.36%65.64%-9.40%-11.18%8:07.7
48 194 Stevens, Adam 41 M-40-44 3:16:10.9 +1:08:08.5+53.22%65.27%-10.02%-11.81%8:10.5
49 247 Smith, Chris 45 M-45-49 3:17:17.0 +1:09:14.6+54.08%64.90%-10.63%-12.43%8:13.2
50 40 Kent, Stephan 59 M-55-59 3:17:18.5 +1:09:16.1+54.10%64.89%-10.65%-12.45%8:13.3
51 313 Rugless, Paul 66 M-60-69 3:17:29.1 +1:09:26.7+54.24%64.84%-10.75%-12.55%8:13.7
52 98 Warne, Geoff 50 M-50-54 3:18:55.4 +1:10:53.0+55.36%64.37%-11.55%-13.37%8:17.3
53 105 Meyers, Luke 35 M-35-39 3:19:47.9 +1:11:45.5+56.04%64.08%-12.04%-13.87%8:19.5
54 270 Biggs, Craig 38 M-35-39 3:20:51.2 +1:12:48.8+56.87%63.75%-12.64%-14.47%8:22.1
55 121 Schubert, Guy 64 M-60-69 3:23:07.5 +1:15:05.1+58.64%63.04%-13.91%-15.76%8:27.8
56 32 Fitzgerald, Adam 36 M-35-39 3:23:20.9 +1:15:18.5+58.82%62.97%-14.04%-15.89%8:28.4
57 283 Braddon, Mark 51 M-50-54 3:28:55.5 +1:20:53.1+63.17%61.29%-17.16%-19.07%8:42.3
58 226 Bazley, Nathan 30 M-30-34 3:30:44.6 +1:22:42.2+64.59%60.76%-18.18%-20.10%8:46.9
59 278 Marshall, Richard 39 M-35-39 3:30:47.5 +1:22:45.1+64.63%60.74%-18.21%-20.13%8:47.0
60 272 Hill, Ian 61 M-60-69 3:31:45.6 +1:23:43.2+65.39%60.46%-18.75%-20.68%8:49.4
61 5 Harrihill, David 49 M-45-49 3:39:01.3 +1:30:58.9+71.06%58.46%-22.83%-24.82%9:07.6
62 255 Lycos, Kimon 45 M-45-49 3:43:24.0 +1:35:21.6+74.48%57.31%-25.28%-27.32%9:18.5
63 234 Junblat, Ziad 48 M-45-49 3:43:26.6 +1:35:24.2+74.51%57.30%-25.30%-27.34%9:18.6
64 132 Fotheringham, Michael 43 M-40-44 4:18:48.9 +2:10:46.5+102.14%49.47%-45.14%-47.50%10:47.0
65 292 Mount, Phil 69 M-60-69 5:01:00.0 +2:52:57.6+135.08%42.54%-68.80%-71.54%12:32.5
- 314 Demczuk, David 36 M-35-39 DNF ------
- 317 Pearson, Simon 32 M-30-34 DNF ------
- 31 Dixon, Mark 43 M-40-44 DSQ ------
- 220 Bourner, Tim 42 M-40-44 DSQ ------